sensor_id;sensor_type;location;lat;lon;timestamp;temperature;humidity
22235;DHT22;11286;45.596;5.284;2023-04-07T00:00:58;9.40;99.90
22235;DHT22;11286;45.596;5.284;2023-04-07T00:03:24;9.30;99.90
22235;DHT22;11286;45.596;5.284;2023-04-07T00:05:50;9.30;99.90
22235;DHT22;11286;45.596;5.284;2023-04-07T00:08:16;9.60;99.90
22235;DHT22;11286;45.596;5.284;2023-04-07T00:10:41;9.30;99.90
22235;DHT22;11286;45.596;5.284;2023-04-07T00:13:07;9.10;99.90
22235;DHT22;11286;45.596;5.284;2023-04-07T00:15:32;9.10;99.90
22235;DHT22;11286;45.596;5.284;2023-04-07T00:17:58;9.10;99.90
22235;DHT22;11286;45.596;5.284;2023-04-07T00:20:24;9.00;99.90
22235;DHT22;11286;45.596;5.284;2023-04-07T00:22:49;9.00;99.90
22235;DHT22;11286;45.596;5.284;2023-04-07T00:25:15;8.90;99.90
22235;DHT22;11286;45.596;5.284;2023-04-07T00:27:41;8.90;99.90
22235;DHT22;11286;45.596;5.284;2023-04-07T00:30:07;8.80;99.90
22235;DHT22;11286;45.596;5.284;2023-04-07T00:32:33;8.70;99.90
22235;DHT22;11286;45.596;5.284;2023-04-07T00:34:58;8.80;99.90
22235;DHT22;11286;45.596;5.284;2023-04-07T00:37:24;8.70;99.90
22235;DHT22;11286;45.596;5.284;2023-04-07T00:39:50;8.70;99.90
22235;DHT22;11286;45.596;5.284;2023-04-07T00:42:17;9.30;99.90
22235;DHT22;11286;45.596;5.284;2023-04-07T00:44:43;8.90;99.90
22235;DHT22;11286;45.596;5.284;2023-04-07T00:47:09;8.90;99.90
22235;DHT22;11286;45.596;5.284;2023-04-07T00:49:36;8.90;99.90
22235;DHT22;11286;45.596;5.284;2023-04-07T00:52:01;9.00;99.90
22235;DHT22;11286;45.596;5.284;2023-04-07T00:54:29;9.00;99.90
22235;DHT22;11286;45.596;5.284;2023-04-07T00:56:55;9.10;99.90
22235;DHT22;11286;45.596;5.284;2023-04-07T00:59:22;9.10;99.90
22235;DHT22;11286;45.596;5.284;2023-04-07T01:01:57;9.30;99.90
22235;DHT22;11286;45.596;5.284;2023-04-07T01:04:46;9.30;99.90
22235;DHT22;11286;45.596;5.284;2023-04-07T01:07:21;9.20;99.90
22235;DHT22;11286;45.596;5.284;2023-04-07T01:09:54;8.60;99.90
22235;DHT22;11286;45.596;5.284;2023-04-07T01:15:12;8.10;99.90
22235;DHT22;11286;45.596;5.284;2023-04-07T01:18:14;8.10;99.90
22235;DHT22;11286;45.596;5.284;2023-04-07T01:20:42;8.30;99.90
22235;DHT22;11286;45.596;5.284;2023-04-07T01:23:12;8.50;99.90
22235;DHT22;11286;45.596;5.284;2023-04-07T01:31:04;8.60;99.90
22235;DHT22;11286;45.596;5.284;2023-04-07T01:33:33;8.60;99.90
22235;DHT22;11286;45.596;5.284;2023-04-07T01:36:00;8.40;99.90
22235;DHT22;11286;45.596;5.284;2023-04-07T01:38:27;8.40;99.90
22235;DHT22;11286;45.596;5.284;2023-04-07T01:40:55;8.30;99.90
22235;DHT22;11286;45.596;5.284;2023-04-07T01:43:22;8.10;99.90
22235;DHT22;11286;45.596;5.284;2023-04-07T01:45:49;7.90;99.90
22235;DHT22;11286;45.596;5.284;2023-04-07T01:48:16;7.80;99.90
22235;DHT22;11286;45.596;5.284;2023-04-07T01:50:43;7.80;99.90
22235;DHT22;11286;45.596;5.284;2023-04-07T01:53:10;8.20;99.90
22235;DHT22;11286;45.596;5.284;2023-04-07T01:55:36;8.10;99.90
22235;DHT22;11286;45.596;5.284;2023-04-07T01:58:06;8.30;99.90
22235;DHT22;11286;45.596;5.284;2023-04-07T02:00:32;8.40;99.90
22235;DHT22;11286;45.596;5.284;2023-04-07T02:03:07;8.60;99.90
22235;DHT22;11286;45.596;5.284;2023-04-07T02:05:35;8.60;99.90
22235;DHT22;11286;45.596;5.284;2023-04-07T02:08:05;8.40;99.90
22235;DHT22;11286;45.596;5.284;2023-04-07T02:10:34;8.50;99.90
22235;DHT22;11286;45.596;5.284;2023-04-07T02:13:07;8.50;99.90
22235;DHT22;11286;45.596;5.284;2023-04-07T02:15:37;8.40;99.90
22235;DHT22;11286;45.596;5.284;2023-04-07T02:18:03;8.20;99.90
22235;DHT22;11286;45.596;5.284;2023-04-07T02:20:30;8.10;99.90
22235;DHT22;11286;45.596;5.284;2023-04-07T02:22:57;8.20;99.90
22235;DHT22;11286;45.596;5.284;2023-04-07T02:25:25;8.50;99.90
22235;DHT22;11286;45.596;5.284;2023-04-07T02:27:51;8.30;99.90
22235;DHT22;11286;45.596;5.284;2023-04-07T02:30:17;8.50;99.90
22235;DHT22;11286;45.596;5.284;2023-04-07T02:32:43;8.60;99.90
22235;DHT22;11286;45.596;5.284;2023-04-07T02:35:09;8.50;99.90
22235;DHT22;11286;45.596;5.284;2023-04-07T02:37:35;8.30;99.90
22235;DHT22;11286;45.596;5.284;2023-04-07T02:40:02;8.50;99.90
22235;DHT22;11286;45.596;5.284;2023-04-07T02:42:28;8.50;99.90
22235;DHT22;11286;45.596;5.284;2023-04-07T02:44:53;8.50;99.90
22235;DHT22;11286;45.596;5.284;2023-04-07T02:47:19;8.40;99.90
22235;DHT22;11286;45.596;5.284;2023-04-07T02:49:44;8.60;99.90
22235;DHT22;11286;45.596;5.284;2023-04-07T02:52:11;8.70;99.90
22235;DHT22;11286;45.596;5.284;2023-04-07T02:54:36;8.70;99.90
22235;DHT22;11286;45.596;5.284;2023-04-07T02:57:02;8.80;99.90
22235;DHT22;11286;45.596;5.284;2023-04-07T02:59:28;8.80;99.90
22235;DHT22;11286;45.596;5.284;2023-04-07T03:01:53;8.90;99.90
22235;DHT22;11286;45.596;5.284;2023-04-07T03:04:20;8.90;99.90
22235;DHT22;11286;45.596;5.284;2023-04-07T03:06:45;8.90;99.90
22235;DHT22;11286;45.596;5.284;2023-04-07T03:09:11;9.00;99.90
22235;DHT22;11286;45.596;5.284;2023-04-07T03:11:37;9.10;99.90
22235;DHT22;11286;45.596;5.284;2023-04-07T03:14:02;8.90;99.90
22235;DHT22;11286;45.596;5.284;2023-04-07T03:16:28;8.70;99.90
22235;DHT22;11286;45.596;5.284;2023-04-07T03:18:53;8.80;99.90
22235;DHT22;11286;45.596;5.284;2023-04-07T03:21:20;8.70;99.90
22235;DHT22;11286;45.596;5.284;2023-04-07T03:23:46;8.70;99.90
22235;DHT22;11286;45.596;5.284;2023-04-07T03:26:11;8.60;99.90
22235;DHT22;11286;45.596;5.284;2023-04-07T03:28:37;8.40;99.90
22235;DHT22;11286;45.596;5.284;2023-04-07T03:31:02;8.50;99.90
22235;DHT22;11286;45.596;5.284;2023-04-07T03:33:28;8.60;99.90
22235;DHT22;11286;45.596;5.284;2023-04-07T03:35:54;8.70;99.90
22235;DHT22;11286;45.596;5.284;2023-04-07T03:38:20;8.80;99.90
22235;DHT22;11286;45.596;5.284;2023-04-07T03:40:46;9.30;99.90
22235;DHT22;11286;45.596;5.284;2023-04-07T03:43:11;8.90;99.90
22235;DHT22;11286;45.596;5.284;2023-04-07T03:45:40;8.60;99.90
22235;DHT22;11286;45.596;5.284;2023-04-07T03:48:06;8.70;99.90
22235;DHT22;11286;45.596;5.284;2023-04-07T03:50:37;8.60;99.90
22235;DHT22;11286;45.596;5.284;2023-04-07T03:53:03;8.50;99.90
22235;DHT22;11286;45.596;5.284;2023-04-07T03:55:29;8.40;99.90
22235;DHT22;11286;45.596;5.284;2023-04-07T03:57:55;8.60;99.90
22235;DHT22;11286;45.596;5.284;2023-04-07T04:00:20;8.60;99.90
22235;DHT22;11286;45.596;5.284;2023-04-07T04:02:46;8.40;99.90
22235;DHT22;11286;45.596;5.284;2023-04-07T04:05:12;8.60;99.90
22235;DHT22;11286;45.596;5.284;2023-04-07T04:07:37;8.70;99.90
22235;DHT22;11286;45.596;5.284;2023-04-07T04:10:03;8.80;99.90
22235;DHT22;11286;45.596;5.284;2023-04-07T04:12:29;8.90;99.90
22235;DHT22;11286;45.596;5.284;2023-04-07T04:14:54;8.90;99.90
22235;DHT22;11286;45.596;5.284;2023-04-07T04:17:20;8.80;99.90
22235;DHT22;11286;45.596;5.284;2023-04-07T04:19:46;8.80;99.90
22235;DHT22;11286;45.596;5.284;2023-04-07T04:22:11;8.70;99.90
22235;DHT22;11286;45.596;5.284;2023-04-07T04:24:37;8.80;99.90
22235;DHT22;11286;45.596;5.284;2023-04-07T04:27:03;9.00;99.90
22235;DHT22;11286;45.596;5.284;2023-04-07T04:29:28;8.80;99.90
22235;DHT22;11286;45.596;5.284;2023-04-07T04:31:54;8.70;99.90
22235;DHT22;11286;45.596;5.284;2023-04-07T04:34:20;8.70;99.90
22235;DHT22;11286;45.596;5.284;2023-04-07T04:36:46;8.70;99.90
22235;DHT22;11286;45.596;5.284;2023-04-07T04:39:13;8.70;99.90
22235;DHT22;11286;45.596;5.284;2023-04-07T04:41:39;8.80;99.90
22235;DHT22;11286;45.596;5.284;2023-04-07T04:44:04;8.90;99.90
22235;DHT22;11286;45.596;5.284;2023-04-07T04:46:30;9.20;99.90
22235;DHT22;11286;45.596;5.284;2023-04-07T04:48:56;9.00;99.90
22235;DHT22;11286;45.596;5.284;2023-04-07T04:51:22;9.10;99.90
22235;DHT22;11286;45.596;5.284;2023-04-07T04:53:48;9.00;99.90
22235;DHT22;11286;45.596;5.284;2023-04-07T04:56:14;9.00;99.90
22235;DHT22;11286;45.596;5.284;2023-04-07T04:58:40;9.00;99.90
22235;DHT22;11286;45.596;5.284;2023-04-07T05:01:10;9.40;99.90
22235;DHT22;11286;45.596;5.284;2023-04-07T05:03:36;9.10;99.90
22235;DHT22;11286;45.596;5.284;2023-04-07T05:06:02;8.90;99.90
22235;DHT22;11286;45.596;5.284;2023-04-07T05:08:27;9.10;99.90
22235;DHT22;11286;45.596;5.284;2023-04-07T05:10:53;9.10;99.90
22235;DHT22;11286;45.596;5.284;2023-04-07T05:13:19;9.00;99.90
22235;DHT22;11286;45.596;5.284;2023-04-07T05:15:46;9.10;99.90
22235;DHT22;11286;45.596;5.284;2023-04-07T05:18:11;9.40;99.90
22235;DHT22;11286;45.596;5.284;2023-04-07T05:20:37;9.00;99.90
22235;DHT22;11286;45.596;5.284;2023-04-07T05:23:03;8.80;99.90
22235;DHT22;11286;45.596;5.284;2023-04-07T05:25:29;8.90;99.90
22235;DHT22;11286;45.596;5.284;2023-04-07T05:27:54;9.00;99.90
22235;DHT22;11286;45.596;5.284;2023-04-07T05:30:20;9.10;99.90
22235;DHT22;11286;45.596;5.284;2023-04-07T05:32:46;9.20;99.90
22235;DHT22;11286;45.596;5.284;2023-04-07T05:35:12;9.20;99.90
22235;DHT22;11286;45.596;5.284;2023-04-07T05:37:38;9.00;99.90
22235;DHT22;11286;45.596;5.284;2023-04-07T05:40:03;9.10;99.90
22235;DHT22;11286;45.596;5.284;2023-04-07T05:42:29;9.00;99.90
22235;DHT22;11286;45.596;5.284;2023-04-07T05:44:55;9.10;99.90
22235;DHT22;11286;45.596;5.284;2023-04-07T05:47:21;9.20;99.90
22235;DHT22;11286;45.596;5.284;2023-04-07T05:49:46;9.30;99.90
22235;DHT22;11286;45.596;5.284;2023-04-07T05:52:12;9.30;99.90
22235;DHT22;11286;45.596;5.284;2023-04-07T05:54:38;9.40;99.90
22235;DHT22;11286;45.596;5.284;2023-04-07T05:57:07;9.40;99.90
22235;DHT22;11286;45.596;5.284;2023-04-07T05:59:34;9.50;99.90
22235;DHT22;11286;45.596;5.284;2023-04-07T06:02:00;9.60;99.90
22235;DHT22;11286;45.596;5.284;2023-04-07T06:04:25;9.40;99.90
22235;DHT22;11286;45.596;5.284;2023-04-07T06:06:51;9.30;99.90
22235;DHT22;11286;45.596;5.284;2023-04-07T06:09:22;9.40;99.90
22235;DHT22;11286;45.596;5.284;2023-04-07T06:11:48;9.30;99.90
22235;DHT22;11286;45.596;5.284;2023-04-07T06:14:13;9.00;99.90
22235;DHT22;11286;45.596;5.284;2023-04-07T06:16:39;9.00;99.90
22235;DHT22;11286;45.596;5.284;2023-04-07T06:19:05;9.00;99.90
22235;DHT22;11286;45.596;5.284;2023-04-07T06:21:32;9.00;99.90
22235;DHT22;11286;45.596;5.284;2023-04-07T06:23:58;9.20;99.90
22235;DHT22;11286;45.596;5.284;2023-04-07T06:26:23;9.10;99.90
22235;DHT22;11286;45.596;5.284;2023-04-07T06:28:49;9.30;99.90
22235;DHT22;11286;45.596;5.284;2023-04-07T06:31:15;9.30;99.90
22235;DHT22;11286;45.596;5.284;2023-04-07T06:33:41;9.60;99.90
22235;DHT22;11286;45.596;5.284;2023-04-07T06:36:07;9.50;99.90
22235;DHT22;11286;45.596;5.284;2023-04-07T06:38:32;9.70;99.90
22235;DHT22;11286;45.596;5.284;2023-04-07T06:40:58;9.70;99.90
22235;DHT22;11286;45.596;5.284;2023-04-07T06:43:24;9.70;99.90
22235;DHT22;11286;45.596;5.284;2023-04-07T06:45:49;9.60;99.90
22235;DHT22;11286;45.596;5.284;2023-04-07T06:48:15;9.50;99.90
22235;DHT22;11286;45.596;5.284;2023-04-07T06:50:41;9.60;99.90
22235;DHT22;11286;45.596;5.284;2023-04-07T06:53:07;9.80;99.90
22235;DHT22;11286;45.596;5.284;2023-04-07T06:55:33;10.00;99.90
22235;DHT22;11286;45.596;5.284;2023-04-07T06:57:58;10.00;99.90
22235;DHT22;11286;45.596;5.284;2023-04-07T07:00:24;10.00;99.90
22235;DHT22;11286;45.596;5.284;2023-04-07T07:02:50;9.90;99.90
22235;DHT22;11286;45.596;5.284;2023-04-07T07:05:16;9.90;99.90
22235;DHT22;11286;45.596;5.284;2023-04-07T07:07:41;9.90;99.90
22235;DHT22;11286;45.596;5.284;2023-04-07T07:10:10;9.80;99.90
22235;DHT22;11286;45.596;5.284;2023-04-07T07:12:36;9.80;99.90
22235;DHT22;11286;45.596;5.284;2023-04-07T07:15:02;9.80;99.90
22235;DHT22;11286;45.596;5.284;2023-04-07T07:17:28;9.80;99.90
22235;DHT22;11286;45.596;5.284;2023-04-07T07:19:55;9.80;99.90
22235;DHT22;11286;45.596;5.284;2023-04-07T07:22:20;9.80;99.90
22235;DHT22;11286;45.596;5.284;2023-04-07T07:24:46;10.10;99.90
22235;DHT22;11286;45.596;5.284;2023-04-07T07:27:11;10.00;99.90
22235;DHT22;11286;45.596;5.284;2023-04-07T07:29:37;10.10;99.90
22235;DHT22;11286;45.596;5.284;2023-04-07T07:32:03;10.30;99.90
22235;DHT22;11286;45.596;5.284;2023-04-07T07:34:28;10.40;99.90
22235;DHT22;11286;45.596;5.284;2023-04-07T07:36:54;10.60;99.90
22235;DHT22;11286;45.596;5.284;2023-04-07T07:39:20;10.60;99.90
22235;DHT22;11286;45.596;5.284;2023-04-07T07:41:45;10.60;99.90
22235;DHT22;11286;45.596;5.284;2023-04-07T07:44:11;10.50;99.90
22235;DHT22;11286;45.596;5.284;2023-04-07T07:46:37;10.50;99.90
22235;DHT22;11286;45.596;5.284;2023-04-07T07:49:02;10.60;99.90
22235;DHT22;11286;45.596;5.284;2023-04-07T07:51:30;10.70;99.90
22235;DHT22;11286;45.596;5.284;2023-04-07T07:53:55;10.60;99.90
22235;DHT22;11286;45.596;5.284;2023-04-07T07:56:21;10.80;99.90
22235;DHT22;11286;45.596;5.284;2023-04-07T07:58:47;10.90;99.90
22235;DHT22;11286;45.596;5.284;2023-04-07T08:01:12;10.90;99.90
22235;DHT22;11286;45.596;5.284;2023-04-07T08:03:38;11.20;99.90
22235;DHT22;11286;45.596;5.284;2023-04-07T08:06:04;11.20;99.90
22235;DHT22;11286;45.596;5.284;2023-04-07T08:08:30;11.40;99.90
22235;DHT22;11286;45.596;5.284;2023-04-07T08:10:56;11.70;99.90
22235;DHT22;11286;45.596;5.284;2023-04-07T08:13:21;12.00;99.90
22235;DHT22;11286;45.596;5.284;2023-04-07T08:15:47;12.20;99.90
22235;DHT22;11286;45.596;5.284;2023-04-07T08:18:13;12.10;99.90
22235;DHT22;11286;45.596;5.284;2023-04-07T08:20:38;12.30;99.90
22235;DHT22;11286;45.596;5.284;2023-04-07T08:23:04;12.30;99.90
22235;DHT22;11286;45.596;5.284;2023-04-07T08:25:30;12.20;99.90
22235;DHT22;11286;45.596;5.284;2023-04-07T08:27:55;12.10;99.90
22235;DHT22;11286;45.596;5.284;2023-04-07T08:30:21;12.20;99.90
22235;DHT22;11286;45.596;5.284;2023-04-07T08:32:47;12.30;99.90
22235;DHT22;11286;45.596;5.284;2023-04-07T08:35:12;12.50;99.90
22235;DHT22;11286;45.596;5.284;2023-04-07T08:37:39;12.70;99.90
22235;DHT22;11286;45.596;5.284;2023-04-07T08:40:05;12.70;99.90
22235;DHT22;11286;45.596;5.284;2023-04-07T08:42:33;12.70;99.90
22235;DHT22;11286;45.596;5.284;2023-04-07T08:45:06;12.70;99.90
22235;DHT22;11286;45.596;5.284;2023-04-07T08:47:34;12.80;99.90
22235;DHT22;11286;45.596;5.284;2023-04-07T08:50:02;12.80;99.90
22235;DHT22;11286;45.596;5.284;2023-04-07T08:52:55;12.50;99.90
22235;DHT22;11286;45.596;5.284;2023-04-07T08:55:21;12.60;99.90
22235;DHT22;11286;45.596;5.284;2023-04-07T08:57:47;12.70;99.90
22235;DHT22;11286;45.596;5.284;2023-04-07T09:00:13;12.90;99.90
22235;DHT22;11286;45.596;5.284;2023-04-07T09:02:43;13.20;99.90
22235;DHT22;11286;45.596;5.284;2023-04-07T09:05:10;13.40;99.90
22235;DHT22;11286;45.596;5.284;2023-04-07T09:07:37;13.60;99.90
22235;DHT22;11286;45.596;5.284;2023-04-07T09:10:05;13.60;99.90
22235;DHT22;11286;45.596;5.284;2023-04-07T09:12:31;13.70;99.90
22235;DHT22;11286;45.596;5.284;2023-04-07T09:14:57;14.00;99.90
22235;DHT22;11286;45.596;5.284;2023-04-07T09:17:24;14.00;99.90
22235;DHT22;11286;45.596;5.284;2023-04-07T09:19:52;13.60;99.90
22235;DHT22;11286;45.596;5.284;2023-04-07T09:22:34;13.70;99.90
22235;DHT22;11286;45.596;5.284;2023-04-07T09:25:18;13.60;99.90
22235;DHT22;11286;45.596;5.284;2023-04-07T09:28:01;13.40;99.90
22235;DHT22;11286;45.596;5.284;2023-04-07T09:30:28;13.40;99.90
22235;DHT22;11286;45.596;5.284;2023-04-07T09:32:54;13.70;99.90
22235;DHT22;11286;45.596;5.284;2023-04-07T09:35:20;13.90;99.90
22235;DHT22;11286;45.596;5.284;2023-04-07T09:38:02;14.00;99.90
22235;DHT22;11286;45.596;5.284;2023-04-07T09:40:28;14.30;99.90
22235;DHT22;11286;45.596;5.284;2023-04-07T09:42:53;14.20;99.90
22235;DHT22;11286;45.596;5.284;2023-04-07T09:45:29;13.90;99.90
22235;DHT22;11286;45.596;5.284;2023-04-07T09:47:56;13.60;99.90
22235;DHT22;11286;45.596;5.284;2023-04-07T09:53:00;13.30;99.90
22235;DHT22;11286;45.596;5.284;2023-04-07T09:55:27;13.00;99.90
22235;DHT22;11286;45.596;5.284;2023-04-07T09:57:53;13.10;99.90
22235;DHT22;11286;45.596;5.284;2023-04-07T10:00:23;13.40;99.90
22235;DHT22;11286;45.596;5.284;2023-04-07T10:02:49;13.70;99.90
22235;DHT22;11286;45.596;5.284;2023-04-07T10:05:16;14.10;99.90
22235;DHT22;11286;45.596;5.284;2023-04-07T10:07:42;14.50;99.90
22235;DHT22;11286;45.596;5.284;2023-04-07T10:10:08;15.30;99.90
22235;DHT22;11286;45.596;5.284;2023-04-07T10:12:36;14.80;99.90
22235;DHT22;11286;45.596;5.284;2023-04-07T10:15:02;14.20;99.90
22235;DHT22;11286;45.596;5.284;2023-04-07T10:17:29;15.20;99.90
22235;DHT22;11286;45.596;5.284;2023-04-07T10:19:57;16.30;99.90
22235;DHT22;11286;45.596;5.284;2023-04-07T10:22:24;16.90;99.90
22235;DHT22;11286;45.596;5.284;2023-04-07T10:25:10;17.40;99.90
22235;DHT22;11286;45.596;5.284;2023-04-07T10:27:50;18.10;99.90
22235;DHT22;11286;45.596;5.284;2023-04-07T10:30:26;18.70;99.90
22235;DHT22;11286;45.596;5.284;2023-04-07T10:32:53;19.70;99.90
22235;DHT22;11286;45.596;5.284;2023-04-07T10:35:19;20.10;99.90
22235;DHT22;11286;45.596;5.284;2023-04-07T10:40:33;19.40;99.90
22235;DHT22;11286;45.596;5.284;2023-04-07T10:42:59;17.90;99.90
22235;DHT22;11286;45.596;5.284;2023-04-07T10:45:55;19.70;99.90
22235;DHT22;11286;45.596;5.284;2023-04-07T10:48:24;20.70;99.90
22235;DHT22;11286;45.596;5.284;2023-04-07T10:53:32;21.50;99.90
22235;DHT22;11286;45.596;5.284;2023-04-07T10:55:58;22.20;99.90
22235;DHT22;11286;45.596;5.284;2023-04-07T10:58:28;22.20;99.90
22235;DHT22;11286;45.596;5.284;2023-04-07T11:03:26;21.30;99.90
22235;DHT22;11286;45.596;5.284;2023-04-07T11:06:01;19.10;99.90
22235;DHT22;11286;45.596;5.284;2023-04-07T11:08:34;18.10;99.90
22235;DHT22;11286;45.596;5.284;2023-04-07T11:11:01;17.90;99.90
22235;DHT22;11286;45.596;5.284;2023-04-07T11:13:26;17.90;99.90
22235;DHT22;11286;45.596;5.284;2023-04-07T11:15:52;20.10;99.90
22235;DHT22;11286;45.596;5.284;2023-04-07T11:18:20;20.60;99.90
22235;DHT22;11286;45.596;5.284;2023-04-07T11:20:56;20.10;99.90
22235;DHT22;11286;45.596;5.284;2023-04-07T11:23:25;20.80;99.90
22235;DHT22;11286;45.596;5.284;2023-04-07T11:26:00;22.20;99.90
22235;DHT22;11286;45.596;5.284;2023-04-07T11:28:27;22.50;99.90
22235;DHT22;11286;45.596;5.284;2023-04-07T11:30:53;23.20;99.90
22235;DHT22;11286;45.596;5.284;2023-04-07T11:33:24;24.00;99.90
22235;DHT22;11286;45.596;5.284;2023-04-07T11:35:53;23.00;99.90
22235;DHT22;11286;45.596;5.284;2023-04-07T11:38:20;20.80;99.90
22235;DHT22;11286;45.596;5.284;2023-04-07T11:40:47;19.30;99.90
22235;DHT22;11286;45.596;5.284;2023-04-07T11:43:17;18.70;99.90
22235;DHT22;11286;45.596;5.284;2023-04-07T11:45:44;18.00;99.90
22235;DHT22;11286;45.596;5.284;2023-04-07T11:48:26;17.40;99.90
22235;DHT22;11286;45.596;5.284;2023-04-07T11:50:52;17.20;99.90
22235;DHT22;11286;45.596;5.284;2023-04-07T11:53:28;16.90;99.90
22235;DHT22;11286;45.596;5.284;2023-04-07T11:56:12;16.80;99.90
22235;DHT22;11286;45.596;5.284;2023-04-07T11:58:51;17.40;99.90
22235;DHT22;11286;45.596;5.284;2023-04-07T12:01:18;18.50;99.90
22235;DHT22;11286;45.596;5.284;2023-04-07T12:04:01;22.00;99.90
22235;DHT22;11286;45.596;5.284;2023-04-07T12:06:32;19.30;99.90
22235;DHT22;11286;45.596;5.284;2023-04-07T12:09:00;18.20;99.90
22235;DHT22;11286;45.596;5.284;2023-04-07T12:11:26;21.90;99.90
22235;DHT22;11286;45.596;5.284;2023-04-07T12:13:52;24.10;99.90
22235;DHT22;11286;45.596;5.284;2023-04-07T12:16:19;24.80;99.90
22235;DHT22;11286;45.596;5.284;2023-04-07T12:18:44;23.50;99.90
22235;DHT22;11286;45.596;5.284;2023-04-07T12:21:10;21.00;99.90
22235;DHT22;11286;45.596;5.284;2023-04-07T12:23:35;23.10;99.90
22235;DHT22;11286;45.596;5.284;2023-04-07T12:26:01;23.80;99.90
22235;DHT22;11286;45.596;5.284;2023-04-07T12:28:27;24.50;99.90
22235;DHT22;11286;45.596;5.284;2023-04-07T12:30:53;25.20;99.90
22235;DHT22;11286;45.596;5.284;2023-04-07T12:33:19;25.10;99.90
22235;DHT22;11286;45.596;5.284;2023-04-07T12:35:45;25.70;99.90
22235;DHT22;11286;45.596;5.284;2023-04-07T12:38:11;26.10;99.90
22235;DHT22;11286;45.596;5.284;2023-04-07T12:40:37;26.10;99.90
22235;DHT22;11286;45.596;5.284;2023-04-07T12:43:04;26.40;99.90
22235;DHT22;11286;45.596;5.284;2023-04-07T12:45:30;26.40;99.90
22235;DHT22;11286;45.596;5.284;2023-04-07T12:47:56;25.80;99.90
22235;DHT22;11286;45.596;5.284;2023-04-07T12:50:22;25.30;99.90
22235;DHT22;11286;45.596;5.284;2023-04-07T12:52:50;25.40;99.90
22235;DHT22;11286;45.596;5.284;2023-04-07T12:55:16;25.60;99.90
22235;DHT22;11286;45.596;5.284;2023-04-07T12:57:42;26.20;99.90
22235;DHT22;11286;45.596;5.284;2023-04-07T13:00:09;24.90;99.90
22235;DHT22;11286;45.596;5.284;2023-04-07T13:02:34;25.20;99.90
22235;DHT22;11286;45.596;5.284;2023-04-07T13:05:03;25.20;99.90
22235;DHT22;11286;45.596;5.284;2023-04-07T13:07:29;24.70;99.90
22235;DHT22;11286;45.596;5.284;2023-04-07T13:09:55;24.60;99.90
22235;DHT22;11286;45.596;5.284;2023-04-07T13:12:21;24.30;99.90
22235;DHT22;11286;45.596;5.284;2023-04-07T13:14:47;23.60;99.90
22235;DHT22;11286;45.596;5.284;2023-04-07T13:17:13;24.20;99.90
22235;DHT22;11286;45.596;5.284;2023-04-07T13:19:38;24.70;99.90
22235;DHT22;11286;45.596;5.284;2023-04-07T13:22:04;24.20;99.90
22235;DHT22;11286;45.596;5.284;2023-04-07T13:24:30;23.10;99.90
22235;DHT22;11286;45.596;5.284;2023-04-07T13:26:56;21.50;99.90
22235;DHT22;11286;45.596;5.284;2023-04-07T13:29:22;20.10;99.90
22235;DHT22;11286;45.596;5.284;2023-04-07T13:31:48;19.60;99.90
22235;DHT22;11286;45.596;5.284;2023-04-07T13:34:14;19.60;99.90
22235;DHT22;11286;45.596;5.284;2023-04-07T13:36:40;19.50;99.90
22235;DHT22;11286;45.596;5.284;2023-04-07T13:39:06;20.50;99.90
22235;DHT22;11286;45.596;5.284;2023-04-07T13:41:32;20.70;99.90
22235;DHT22;11286;45.596;5.284;2023-04-07T13:43:59;20.90;99.90
22235;DHT22;11286;45.596;5.284;2023-04-07T13:46:25;20.80;99.90
22235;DHT22;11286;45.596;5.284;2023-04-07T13:48:51;21.10;99.90
22235;DHT22;11286;45.596;5.284;2023-04-07T13:51:17;20.30;99.90
22235;DHT22;11286;45.596;5.284;2023-04-07T13:53:43;19.40;99.90
22235;DHT22;11286;45.596;5.284;2023-04-07T13:56:09;19.50;99.90
22235;DHT22;11286;45.596;5.284;2023-04-07T13:58:35;20.90;99.90
22235;DHT22;11286;45.596;5.284;2023-04-07T14:01:02;21.60;99.90
22235;DHT22;11286;45.596;5.284;2023-04-07T14:03:28;21.00;99.90
22235;DHT22;11286;45.596;5.284;2023-04-07T14:05:54;20.10;99.90
22235;DHT22;11286;45.596;5.284;2023-04-07T14:08:20;18.90;99.90
22235;DHT22;11286;45.596;5.284;2023-04-07T14:10:48;18.50;99.90
22235;DHT22;11286;45.596;5.284;2023-04-07T14:13:14;18.10;99.90
22235;DHT22;11286;45.596;5.284;2023-04-07T14:15:40;17.70;99.90
22235;DHT22;11286;45.596;5.284;2023-04-07T14:18:05;16.80;99.90
22235;DHT22;11286;45.596;5.284;2023-04-07T14:20:32;16.50;99.90
22235;DHT22;11286;45.596;5.284;2023-04-07T14:22:57;16.30;99.90
22235;DHT22;11286;45.596;5.284;2023-04-07T14:25:23;16.00;99.90
22235;DHT22;11286;45.596;5.284;2023-04-07T14:27:50;15.70;99.90
22235;DHT22;11286;45.596;5.284;2023-04-07T14:30:16;15.80;99.90
22235;DHT22;11286;45.596;5.284;2023-04-07T14:32:42;16.20;99.90
22235;DHT22;11286;45.596;5.284;2023-04-07T14:35:08;16.50;99.90
22235;DHT22;11286;45.596;5.284;2023-04-07T14:37:33;16.80;99.90
22235;DHT22;11286;45.596;5.284;2023-04-07T14:40:01;17.20;99.90
22235;DHT22;11286;45.596;5.284;2023-04-07T14:42:27;17.70;99.90
22235;DHT22;11286;45.596;5.284;2023-04-07T14:44:54;18.20;99.90
22235;DHT22;11286;45.596;5.284;2023-04-07T14:47:20;18.10;99.90
22235;DHT22;11286;45.596;5.284;2023-04-07T14:49:46;18.10;99.90
22235;DHT22;11286;45.596;5.284;2023-04-07T14:52:11;18.20;99.90
22235;DHT22;11286;45.596;5.284;2023-04-07T14:54:40;18.30;99.90
22235;DHT22;11286;45.596;5.284;2023-04-07T14:57:06;19.00;99.90
22235;DHT22;11286;45.596;5.284;2023-04-07T14:59:31;19.50;99.90
22235;DHT22;11286;45.596;5.284;2023-04-07T15:01:57;19.40;99.90
22235;DHT22;11286;45.596;5.284;2023-04-07T15:04:22;19.30;99.90
22235;DHT22;11286;45.596;5.284;2023-04-07T15:06:48;19.50;99.90
22235;DHT22;11286;45.596;5.284;2023-04-07T15:09:14;20.00;99.90
22235;DHT22;11286;45.596;5.284;2023-04-07T15:11:40;19.60;99.90
22235;DHT22;11286;45.596;5.284;2023-04-07T15:14:05;19.80;99.90
22235;DHT22;11286;45.596;5.284;2023-04-07T15:16:31;20.40;99.90
22235;DHT22;11286;45.596;5.284;2023-04-07T15:18:57;19.50;99.90
22235;DHT22;11286;45.596;5.284;2023-04-07T15:21:23;19.90;99.90
22235;DHT22;11286;45.596;5.284;2023-04-07T15:23:49;19.80;99.90
22235;DHT22;11286;45.596;5.284;2023-04-07T15:26:15;19.70;99.90
22235;DHT22;11286;45.596;5.284;2023-04-07T15:28:40;19.80;99.90
22235;DHT22;11286;45.596;5.284;2023-04-07T15:31:06;19.70;99.90
22235;DHT22;11286;45.596;5.284;2023-04-07T15:33:35;19.60;99.90
22235;DHT22;11286;45.596;5.284;2023-04-07T15:36:02;19.90;99.90
22235;DHT22;11286;45.596;5.284;2023-04-07T15:38:28;19.90;99.90
22235;DHT22;11286;45.596;5.284;2023-04-07T15:40:53;19.90;99.90
22235;DHT22;11286;45.596;5.284;2023-04-07T15:43:19;19.40;99.90
22235;DHT22;11286;45.596;5.284;2023-04-07T15:45:45;19.10;99.90
22235;DHT22;11286;45.596;5.284;2023-04-07T15:48:12;19.20;99.90
22235;DHT22;11286;45.596;5.284;2023-04-07T15:50:38;19.00;99.90
22235;DHT22;11286;45.596;5.284;2023-04-07T15:53:04;19.30;99.90
22235;DHT22;11286;45.596;5.284;2023-04-07T15:55:30;19.70;99.90